sensor_id;sensor_type;location;lat;lon;timestamp;pressure;altitude;pressure_sealevel;temperature;humidity
78855;BME280;68206;59.956;30.234;2023-07-02T07:38:02;99242.25;;;27.49;37.94
78855;BME280;68206;59.956;30.234;2023-07-02T07:40:30;99249.47;;;27.86;37.28
78855;BME280;68206;59.956;30.234;2023-07-02T07:42:58;99242.50;;;28.34;35.84
78855;BME280;68206;59.956;30.234;2023-07-02T07:45:27;99242.94;;;29.43;34.16
78855;BME280;68206;59.956;30.234;2023-07-02T07:47:55;99237.66;;;30.50;32.86
78855;BME280;68206;59.956;30.234;2023-07-02T07:50:23;99246.88;;;30.29;31.63
78855;BME280;68206;59.956;30.234;2023-07-02T07:52:51;99260.06;;;29.64;33.46
78855;BME280;68206;59.956;30.234;2023-07-02T07:55:21;99256.63;;;29.15;33.69
78855;BME280;68206;59.956;30.234;2023-07-02T07:57:50;99258.66;;;28.78;34.22
78855;BME280;68206;59.956;30.234;2023-07-02T08:00:18;99262.13;;;28.30;35.48
78855;BME280;68206;59.956;30.234;2023-07-02T08:02:46;99269.63;;;27.71;36.92
78855;BME280;68206;59.956;30.234;2023-07-02T08:05:15;99270.78;;;26.95;38.11
78855;BME280;68206;59.956;30.234;2023-07-02T08:07:43;99276.41;;;26.70;38.81
78855;BME280;68206;59.956;30.234;2023-07-02T08:10:11;99272.94;;;26.99;38.71
78855;BME280;68206;59.956;30.234;2023-07-02T08:12:40;99267.91;;;27.40;38.05
78855;BME280;68206;59.956;30.234;2023-07-02T08:15:09;99271.94;;;27.74;36.89
78855;BME280;68206;59.956;30.234;2023-07-02T08:17:37;99276.41;;;28.11;36.32
78855;BME280;68206;59.956;30.234;2023-07-02T08:20:06;99285.19;;;28.70;35.04
78855;BME280;68206;59.956;30.234;2023-07-02T08:22:37;99261.84;;;29.44;34.13
78855;BME280;68206;59.956;30.234;2023-07-02T08:25:06;99274.16;;;29.68;33.04
78855;BME280;68206;59.956;30.234;2023-07-02T08:27:34;99277.75;;;30.10;32.04
78855;BME280;68206;59.956;30.234;2023-07-02T08:30:05;99265.75;;;30.11;31.61
78855;BME280;68206;59.956;30.234;2023-07-02T08:32:33;99266.91;;;30.49;30.86
78855;BME280;68206;59.956;30.234;2023-07-02T08:35:02;99279.78;;;30.88;30.54
78855;BME280;68206;59.956;30.234;2023-07-02T08:37:30;99266.06;;;30.62;30.75
78855;BME280;68206;59.956;30.234;2023-07-02T08:39:58;99276.81;;;30.63;30.80
78855;BME280;68206;59.956;30.234;2023-07-02T08:42:26;99284.00;;;30.71;30.64
78855;BME280;68206;59.956;30.234;2023-07-02T08:44:56;99287.44;;;30.25;30.89
78855;BME280;68206;59.956;30.234;2023-07-02T08:47:28;99295.59;;;29.64;32.19
78855;BME280;68206;59.956;30.234;2023-07-02T08:49:57;99287.09;;;28.91;33.39
78855;BME280;68206;59.956;30.234;2023-07-02T08:52:25;99304.13;;;28.14;35.08
78855;BME280;68206;59.956;30.234;2023-07-02T08:54:53;99290.56;;;27.70;36.19
78855;BME280;68206;59.956;30.234;2023-07-02T08:57:21;99297.88;;;27.40;36.57
78855;BME280;68206;59.956;30.234;2023-07-02T08:59:49;99296.72;;;27.20;36.89
78855;BME280;68206;59.956;30.234;2023-07-02T09:02:18;99297.19;;;27.09;37.31
78855;BME280;68206;59.956;30.234;2023-07-02T09:05:00;99292.38;;;26.73;37.42
78855;BME280;68206;59.956;30.234;2023-07-02T09:07:30;99289.72;;;26.42;37.85
78855;BME280;68206;59.956;30.234;2023-07-02T09:10:07;99290.94;;;26.09;38.92
78855;BME280;68206;59.956;30.234;2023-07-02T09:12:35;99297.00;;;25.88;39.61
78855;BME280;68206;59.956;30.234;2023-07-02T09:15:06;99287.59;;;25.68;40.13
78855;BME280;68206;59.956;30.234;2023-07-02T09:17:35;99289.28;;;25.69;39.95
78855;BME280;68206;59.956;30.234;2023-07-02T09:20:06;99285.91;;;25.67;40.26
78855;BME280;68206;59.956;30.234;2023-07-02T09:22:36;99285.38;;;25.72;40.64
78855;BME280;68206;59.956;30.234;2023-07-02T09:25:06;99277.38;;;25.78;40.82
78855;BME280;68206;59.956;30.234;2023-07-02T09:27:40;99281.94;;;25.78;40.86
78855;BME280;68206;59.956;30.234;2023-07-02T09:30:11;99286.16;;;25.80;40.99
78855;BME280;68206;59.956;30.234;2023-07-02T09:32:40;99283.28;;;25.82;40.53
78855;BME280;68206;59.956;30.234;2023-07-02T09:35:10;99281.41;;;25.82;41.05
78855;BME280;68206;59.956;30.234;2023-07-02T09:37:38;99283.72;;;25.93;40.52
78855;BME280;68206;59.956;30.234;2023-07-02T09:40:10;99275.50;;;26.09;40.67
78855;BME280;68206;59.956;30.234;2023-07-02T09:42:39;99275.75;;;26.23;40.78
78855;BME280;68206;59.956;30.234;2023-07-02T09:45:08;99271.13;;;26.31;40.56
78855;BME280;68206;59.956;30.234;2023-07-02T09:47:42;99257.22;;;26.26;40.57
78855;BME280;68206;59.956;30.234;2023-07-02T09:50:14;99263.00;;;26.23;41.07
78855;BME280;68206;59.956;30.234;2023-07-02T09:52:44;99270.66;;;26.20;41.18
78855;BME280;68206;59.956;30.234;2023-07-02T09:55:14;99280.63;;;26.04;41.72
78855;BME280;68206;59.956;30.234;2023-07-02T09:57:43;99268.28;;;25.94;41.68
78855;BME280;68206;59.956;30.234;2023-07-02T10:00:14;99269.22;;;25.78;41.44
78855;BME280;68206;59.956;30.234;2023-07-02T10:02:48;99276.81;;;25.83;40.51
78855;BME280;68206;59.956;30.234;2023-07-02T10:05:28;99266.69;;;25.77;40.68
78855;BME280;68206;59.956;30.234;2023-07-02T10:07:58;99267.88;;;25.74;40.86
78855;BME280;68206;59.956;30.234;2023-07-02T10:10:31;99262.13;;;25.69;40.80
78855;BME280;68206;59.956;30.234;2023-07-02T10:12:59;99261.66;;;25.57;40.93
78855;BME280;68206;59.956;30.234;2023-07-02T10:15:29;99265.22;;;25.50;41.16
78855;BME280;68206;59.956;30.234;2023-07-02T10:18:02;99273.91;;;25.45;40.89
78855;BME280;68206;59.956;30.234;2023-07-02T10:20:33;99268.19;;;25.32;40.70
78855;BME280;68206;59.956;30.234;2023-07-02T10:23:03;99275.84;;;25.28;41.22
78855;BME280;68206;59.956;30.234;2023-07-02T10:25:32;99270.75;;;25.25;41.01
78855;BME280;68206;59.956;30.234;2023-07-02T10:28:01;99266.16;;;25.26;41.30
78855;BME280;68206;59.956;30.234;2023-07-02T10:30:30;99276.53;;;25.22;41.29
78855;BME280;68206;59.956;30.234;2023-07-02T10:33:10;99276.75;;;25.05;41.35
78855;BME280;68206;59.956;30.234;2023-07-02T10:35:40;99285.06;;;25.03;41.76
78855;BME280;68206;59.956;30.234;2023-07-02T10:38:13;99280.81;;;25.09;41.55
78855;BME280;68206;59.956;30.234;2023-07-02T10:40:42;99280.44;;;25.12;41.57
78855;BME280;68206;59.956;30.234;2023-07-02T10:43:11;99286.38;;;25.15;41.31
78855;BME280;68206;59.956;30.234;2023-07-02T10:45:39;99277.06;;;25.10;41.57
78855;BME280;68206;59.956;30.234;2023-07-02T10:48:09;99282.34;;;24.95;41.13
78855;BME280;68206;59.956;30.234;2023-07-02T10:50:39;99277.56;;;24.81;41.37
78855;BME280;68206;59.956;30.234;2023-07-02T10:53:14;99291.16;;;24.65;42.05
78855;BME280;68206;59.956;30.234;2023-07-02T10:55:43;99284.72;;;24.58;42.48
78855;BME280;68206;59.956;30.234;2023-07-02T10:58:12;99284.72;;;24.58;42.37
78855;BME280;68206;59.956;30.234;2023-07-02T11:00:44;99281.66;;;24.52;42.07
78855;BME280;68206;59.956;30.234;2023-07-02T11:03:17;99280.97;;;24.42;42.05
78855;BME280;68206;59.956;30.234;2023-07-02T11:05:48;99290.44;;;24.30;42.10
78855;BME280;68206;59.956;30.234;2023-07-02T11:08:17;99292.78;;;24.17;42.42
78855;BME280;68206;59.956;30.234;2023-07-02T11:10:46;99305.41;;;24.00;42.93
78855;BME280;68206;59.956;30.234;2023-07-02T11:13:16;99304.88;;;23.89;43.39
78855;BME280;68206;59.956;30.234;2023-07-02T11:15:45;99309.75;;;23.77;44.96
78855;BME280;68206;59.956;30.234;2023-07-02T11:18:15;99310.41;;;23.71;45.80
78855;BME280;68206;59.956;30.234;2023-07-02T11:20:45;99306.16;;;23.68;47.22
78855;BME280;68206;59.956;30.234;2023-07-02T11:23:19;99310.09;;;23.82;47.22
78855;BME280;68206;59.956;30.234;2023-07-02T11:25:56;99305.56;;;23.91;46.83
78855;BME280;68206;59.956;30.234;2023-07-02T11:28:25;99301.69;;;24.01;46.09
78855;BME280;68206;59.956;30.234;2023-07-02T11:30:54;99293.91;;;24.06;44.74
78855;BME280;68206;59.956;30.234;2023-07-02T11:33:32;99289.75;;;24.20;43.88
78855;BME280;68206;59.956;30.234;2023-07-02T11:36:00;99295.81;;;24.14;43.24
78855;BME280;68206;59.956;30.234;2023-07-02T11:38:30;99295.25;;;23.94;42.91
78855;BME280;68206;59.956;30.234;2023-07-02T11:40:58;99299.66;;;23.95;43.15
78855;BME280;68206;59.956;30.234;2023-07-02T11:43:26;99292.19;;;23.89;42.92
78855;BME280;68206;59.956;30.234;2023-07-02T11:45:54;99299.97;;;23.84;43.43
78855;BME280;68206;59.956;30.234;2023-07-02T11:48:23;99297.06;;;23.78;43.36
78855;BME280;68206;59.956;30.234;2023-07-02T11:50:51;99284.00;;;23.65;43.57
78855;BME280;68206;59.956;30.234;2023-07-02T11:53:19;99296.97;;;23.53;44.64
78855;BME280;68206;59.956;30.234;2023-07-02T11:55:48;99302.91;;;23.31;45.43
78855;BME280;68206;59.956;30.234;2023-07-02T11:58:17;99324.03;;;23.02;51.15
78855;BME280;68206;59.956;30.234;2023-07-02T12:00:46;99328.06;;;22.62;53.39
78855;BME280;68206;59.956;30.234;2023-07-02T12:03:14;99332.63;;;22.44;54.66
78855;BME280;68206;59.956;30.234;2023-07-02T12:05:45;99338.41;;;22.31;55.50
78855;BME280;68206;59.956;30.234;2023-07-02T12:08:14;99351.13;;;22.21;56.12
78855;BME280;68206;59.956;30.234;2023-07-02T12:10:43;99337.75;;;22.02;56.87
78855;BME280;68206;59.956;30.234;2023-07-02T12:13:13;99347.66;;;21.74;57.02
78855;BME280;68206;59.956;30.234;2023-07-02T12:15:44;99352.88;;;21.58;56.54
78855;BME280;68206;59.956;30.234;2023-07-02T12:18:12;99350.47;;;21.55;56.40
78855;BME280;68206;59.956;30.234;2023-07-02T12:20:41;99354.56;;;21.59;55.98
78855;BME280;68206;59.956;30.234;2023-07-02T12:23:09;99354.81;;;21.65;55.52
78855;BME280;68206;59.956;30.234;2023-07-02T12:25:38;99354.88;;;21.83;55.58
78855;BME280;68206;59.956;30.234;2023-07-02T12:28:07;99357.03;;;22.07;55.77
78855;BME280;68206;59.956;30.234;2023-07-02T12:30:40;99352.75;;;22.32;55.43
78855;BME280;68206;59.956;30.234;2023-07-02T12:33:08;99340.19;;;22.58;55.12
78855;BME280;68206;59.956;30.234;2023-07-02T12:35:37;99335.88;;;22.83;54.03
78855;BME280;68206;59.956;30.234;2023-07-02T12:38:05;99346.28;;;22.96;53.67
78855;BME280;68206;59.956;30.234;2023-07-02T12:40:35;99342.88;;;22.93;53.99
78855;BME280;68206;59.956;30.234;2023-07-02T12:43:03;99343.44;;;22.97;53.64
78855;BME280;68206;59.956;30.234;2023-07-02T12:45:31;99350.53;;;22.98;53.33
78855;BME280;68206;59.956;30.234;2023-07-02T12:48:01;99343.66;;;23.04;53.33
78855;BME280;68206;59.956;30.234;2023-07-02T12:50:29;99344.88;;;23.09;52.91
78855;BME280;68206;59.956;30.234;2023-07-02T12:52:57;99347.47;;;23.19;53.03
78855;BME280;68206;59.956;30.234;2023-07-02T12:55:25;99353.78;;;23.27;52.86
78855;BME280;68206;59.956;30.234;2023-07-02T12:57:54;99347.81;;;23.24;52.60
78855;BME280;68206;59.956;30.234;2023-07-02T13:00:22;99340.13;;;23.11;52.75
78855;BME280;68206;59.956;30.234;2023-07-02T13:02:51;99347.13;;;22.96;53.28
78855;BME280;68206;59.956;30.234;2023-07-02T13:05:31;99345.13;;;22.80;52.95
78855;BME280;68206;59.956;30.234;2023-07-02T13:08:00;99343.97;;;22.65;53.36
78855;BME280;68206;59.956;30.234;2023-07-02T13:10:28;99341.97;;;22.67;53.35
78855;BME280;68206;59.956;30.234;2023-07-02T13:12:57;99339.41;;;22.66;53.43
78855;BME280;68206;59.956;30.234;2023-07-02T13:15:39;99344.59;;;22.59;53.43
78855;BME280;68206;59.956;30.234;2023-07-02T13:18:08;99342.38;;;22.55;55.91
78855;BME280;68206;59.956;30.234;2023-07-02T13:20:37;99341.44;;;22.46;56.00
78855;BME280;68206;59.956;30.234;2023-07-02T13:23:05;99333.69;;;22.51;55.32
78855;BME280;68206;59.956;30.234;2023-07-02T13:25:33;99334.16;;;22.64;55.51
78855;BME280;68206;59.956;30.234;2023-07-02T13:28:01;99324.69;;;22.60;55.39
78855;BME280;68206;59.956;30.234;2023-07-02T13:30:30;99329.69;;;22.37;55.89
78855;BME280;68206;59.956;30.234;2023-07-02T13:32:58;99325.13;;;22.20;56.71
78855;BME280;68206;59.956;30.234;2023-07-02T13:35:26;99333.97;;;22.12;56.68
78855;BME280;68206;59.956;30.234;2023-07-02T13:37:55;99343.16;;;22.02;57.47
78855;BME280;68206;59.956;30.234;2023-07-02T13:40:26;99356.13;;;21.89;59.07
78855;BME280;68206;59.956;30.234;2023-07-02T13:42:54;99355.09;;;21.72;59.38
78855;BME280;68206;59.956;30.234;2023-07-02T13:45:23;99341.78;;;21.61;59.87
78855;BME280;68206;59.956;30.234;2023-07-02T13:47:51;99338.38;;;21.59;59.73
78855;BME280;68206;59.956;30.234;2023-07-02T13:50:19;99335.94;;;21.65;59.76
78855;BME280;68206;59.956;30.234;2023-07-02T13:52:48;99344.16;;;21.73;59.73
78855;BME280;68206;59.956;30.234;2023-07-02T13:55:18;99343.78;;;21.86;59.34
78855;BME280;68206;59.956;30.234;2023-07-02T13:57:47;99341.06;;;21.96;59.08
78855;BME280;68206;59.956;30.234;2023-07-02T14:00:17;99339.22;;;21.96;59.13
78855;BME280;68206;59.956;30.234;2023-07-02T14:02:45;99346.88;;;21.91;58.64
78855;BME280;68206;59.956;30.234;2023-07-02T14:05:14;99344.53;;;21.79;58.44
78855;BME280;68206;59.956;30.234;2023-07-02T14:07:42;99336.09;;;21.64;58.57
78855;BME280;68206;59.956;30.234;2023-07-02T14:10:10;99326.94;;;21.47;57.44
78855;BME280;68206;59.956;30.234;2023-07-02T14:12:39;99334.94;;;21.29;56.20
78855;BME280;68206;59.956;30.234;2023-07-02T14:15:09;99335.69;;;21.22;56.67
78855;BME280;68206;59.956;30.234;2023-07-02T14:17:38;99339.06;;;21.24;56.59
78855;BME280;68206;59.956;30.234;2023-07-02T14:20:08;99336.94;;;21.18;56.05
78855;BME280;68206;59.956;30.234;2023-07-02T14:22:36;99332.84;;;21.23;55.75
78855;BME280;68206;59.956;30.234;2023-07-02T14:25:04;99336.50;;;21.32;55.81
78855;BME280;68206;59.956;30.234;2023-07-02T14:27:33;99335.03;;;21.47;55.67
78855;BME280;68206;59.956;30.234;2023-07-02T14:30:01;99334.69;;;21.60;55.55
78855;BME280;68206;59.956;30.234;2023-07-02T14:32:35;99333.25;;;21.65;55.37
78855;BME280;68206;59.956;30.234;2023-07-02T14:35:05;99329.19;;;21.79;54.90
78855;BME280;68206;59.956;30.234;2023-07-02T14:37:33;99325.97;;;21.93;54.99
78855;BME280;68206;59.956;30.234;2023-07-02T14:40:01;99327.41;;;21.97;54.45
78855;BME280;68206;59.956;30.234;2023-07-02T14:42:33;99318.16;;;22.00;54.57
78855;BME280;68206;59.956;30.234;2023-07-02T14:45:01;99321.03;;;21.98;54.21
78855;BME280;68206;59.956;30.234;2023-07-02T14:47:30;99314.31;;;21.93;54.53
78855;BME280;68206;59.956;30.234;2023-07-02T14:49:58;99313.66;;;21.91;54.69
78855;BME280;68206;59.956;30.234;2023-07-02T14:52:27;99313.78;;;21.89;54.48
78855;BME280;68206;59.956;30.234;2023-07-02T14:54:56;99316.19;;;21.92;54.50
78855;BME280;68206;59.956;30.234;2023-07-02T14:57:26;99311.47;;;21.94;54.25
78855;BME280;68206;59.956;30.234;2023-07-02T14:59:54;99308.78;;;21.94;54.60
78855;BME280;68206;59.956;30.234;2023-07-02T15:02:23;99308.09;;;21.92;54.71
78855;BME280;68206;59.956;30.234;2023-07-02T15:04:52;99307.53;;;21.98;54.51
78855;BME280;68206;59.956;30.234;2023-07-02T15:07:20;99299.81;;;22.03;54.61
78855;BME280;68206;59.956;30.234;2023-07-02T15:09:50;99303.28;;;22.13;54.50
78855;BME280;68206;59.956;30.234;2023-07-02T15:12:18;99296.75;;;22.16;54.46
78855;BME280;68206;59.956;30.234;2023-07-02T15:14:46;99289.25;;;22.10;54.87
78855;BME280;68206;59.956;30.234;2023-07-02T15:17:14;99299.81;;;22.03;54.98
78855;BME280;68206;59.956;30.234;2023-07-02T15:19:43;99290.88;;;21.93;55.26
78855;BME280;68206;59.956;30.234;2023-07-02T15:22:11;99294.34;;;21.86;55.49
78855;BME280;68206;59.956;30.234;2023-07-02T15:24:40;99297.94;;;21.77;55.48
78855;BME280;68206;59.956;30.234;2023-07-02T15:27:13;99292.63;;;21.67;55.75
78855;BME280;68206;59.956;30.234;2023-07-02T15:29:42;99281.56;;;21.60;55.83
78855;BME280;68206;59.956;30.234;2023-07-02T15:32:10;99287.41;;;21.56;56.05
78855;BME280;68206;59.956;30.234;2023-07-02T15:34:38;99289.84;;;21.49;56.08
78855;BME280;68206;59.956;30.234;2023-07-02T15:37:06;99290.44;;;21.43;56.37
78855;BME280;68206;59.956;30.234;2023-07-02T15:39:34;99285.50;;;21.39;56.58
78855;BME280;68206;59.956;30.234;2023-07-02T15:42:03;99283.97;;;21.36;56.68
78855;BME280;68206;59.956;30.234;2023-07-02T15:44:33;99279.00;;;21.31;56.85
78855;BME280;68206;59.956;30.234;2023-07-02T15:47:01;99281.44;;;21.25;56.88
78855;BME280;68206;59.956;30.234;2023-07-02T15:49:30;99280.19;;;21.10;57.56
78855;BME280;68206;59.956;30.234;2023-07-02T15:51:58;99297.38;;;20.99;57.30
78855;BME280;68206;59.956;30.234;2023-07-02T15:54:27;99288.59;;;20.97;57.77
78855;BME280;68206;59.956;30.234;2023-07-02T15:56:55;99282.63;;;20.93;58.71
78855;BME280;68206;59.956;30.234;2023-07-02T15:59:23;99281.09;;;20.91;59.44
78855;BME280;68206;59.956;30.234;2023-07-02T16:01:53;99271.91;;;20.84;59.35
78855;BME280;68206;59.956;30.234;2023-07-02T16:04:21;99271.91;;;20.84;59.53
78855;BME280;68206;59.956;30.234;2023-07-02T16:06:49;99260.00;;;20.77;59.12
78855;BME280;68206;59.956;30.234;2023-07-02T16:09:18;99268.38;;;20.74;59.45
78855;BME280;68206;59.956;30.234;2023-07-02T16:11:46;99261.44;;;20.71;59.69
78855;BME280;68206;59.956;30.234;2023-07-02T16:14:16;99261.03;;;20.66;59.79
78855;BME280;68206;59.956;30.234;2023-07-02T16:16:48;99262.28;;;20.62;60.56
78855;BME280;68206;59.956;30.234;2023-07-02T16:19:22;99265.16;;;20.61;61.52
78855;BME280;68206;59.956;30.234;2023-07-02T16:21:51;99263.72;;;20.57;61.42
78855;BME280;68206;59.956;30.234;2023-07-02T16:24:21;99260.91;;;20.48;60.87
78855;BME280;68206;59.956;30.234;2023-07-02T16:26:51;99269.41;;;20.44;60.90
78855;BME280;68206;59.956;30.234;2023-07-02T16:29:19;99265.84;;;20.43;60.98
78855;BME280;68206;59.956;30.234;2023-07-02T16:31:54;99269.84;;;20.39;61.56
78855;BME280;68206;59.956;30.234;2023-07-02T16:34:24;99271.41;;;20.42;62.14
78855;BME280;68206;59.956;30.234;2023-07-02T16:36:53;99272.38;;;20.41;61.84
78855;BME280;68206;59.956;30.234;2023-07-02T16:39:22;99262.03;;;20.36;62.71
78855;BME280;68206;59.956;30.234;2023-07-02T16:41:50;99261.16;;;20.26;63.32
78855;BME280;68206;59.956;30.234;2023-07-02T16:44:22;99253.06;;;20.07;62.46
78855;BME280;68206;59.956;30.234;2023-07-02T16:46:53;99256.47;;;19.99;63.49
78855;BME280;68206;59.956;30.234;2023-07-02T16:49:25;99259.28;;;19.88;63.05
78855;BME280;68206;59.956;30.234;2023-07-02T16:51:55;99249.81;;;19.84;62.87
78855;BME280;68206;59.956;30.234;2023-07-02T16:54:25;99261.00;;;19.80;63.91
78855;BME280;68206;59.956;30.234;2023-07-02T16:56:54;99248.97;;;19.84;63.79
78855;BME280;68206;59.956;30.234;2023-07-02T16:59:24;99251.34;;;19.77;64.47
78855;BME280;68206;59.956;30.234;2023-07-02T17:01:55;99253.47;;;19.73;64.44
78855;BME280;68206;59.956;30.234;2023-07-02T17:04:26;99252.63;;;19.73;64.69
78855;BME280;68206;59.956;30.234;2023-07-02T17:06:56;99252.03;;;19.69;64.84
78855;BME280;68206;59.956;30.234;2023-07-02T17:09:26;99255.44;;;19.71;65.28
78855;BME280;68206;59.956;30.234;2023-07-02T17:11:59;99250.63;;;19.75;65.17
78855;BME280;68206;59.956;30.234;2023-07-02T17:14:32;99249.94;;;19.73;65.33
78855;BME280;68206;59.956;30.234;2023-07-02T17:17:02;99251.19;;;19.69;65.95
78855;BME280;68206;59.956;30.234;2023-07-02T17:19:33;99244.09;;;19.58;66.71
78855;BME280;68206;59.956;30.234;2023-07-02T17:22:03;99241.84;;;19.63;66.55
78855;BME280;68206;59.956;30.234;2023-07-02T17:24:33;99235.03;;;19.59;67.19
78855;BME280;68206;59.956;30.234;2023-07-02T17:27:02;99242.94;;;19.51;67.45
78855;BME280;68206;59.956;30.234;2023-07-02T17:29:31;99252.84;;;19.51;67.20
78855;BME280;68206;59.956;30.234;2023-07-02T17:32:00;99247.22;;;19.54;67.47
78855;BME280;68206;59.956;30.234;2023-07-02T17:34:30;99246.91;;;19.57;67.70
78855;BME280;68206;59.956;30.234;2023-07-02T17:37:01;99253.75;;;19.61;67.83
78855;BME280;68206;59.956;30.234;2023-07-02T17:39:32;99243.81;;;19.61;67.93
78855;BME280;68206;59.956;30.234;2023-07-02T17:42:02;99243.97;;;19.60;67.75
78855;BME280;68206;59.956;30.234;2023-07-02T17:44:33;99241.41;;;19.58;68.34
78855;BME280;68206;59.956;30.234;2023-07-02T17:47:04;99244.09;;;19.49;68.37
78855;BME280;68206;59.956;30.234;2023-07-02T17:49:36;99247.41;;;19.41;68.96
78855;BME280;68206;59.956;30.234;2023-07-02T17:52:07;99248.97;;;19.44;69.29
78855;BME280;68206;59.956;30.234;2023-07-02T17:54:38;99241.19;;;19.41;70.28
78855;BME280;68206;59.956;30.234;2023-07-02T17:57:08;99233.13;;;19.41;69.97
78855;BME280;68206;59.956;30.234;2023-07-02T17:59:37;99241.06;;;19.42;70.10
78855;BME280;68206;59.956;30.234;2023-07-02T18:02:07;99240.34;;;19.40;70.15
78855;BME280;68206;59.956;30.234;2023-07-02T18:04:36;99244.13;;;19.38;69.97
78855;BME280;68206;59.956;30.234;2023-07-02T18:07:08;99237.91;;;19.37;69.92
78855;BME280;68206;59.956;30.234;2023-07-02T18:09:39;99233.53;;;19.36;69.67
78855;BME280;68206;59.956;30.234;2023-07-02T18:12:08;99232.81;;;19.34;69.96
78855;BME280;68206;59.956;30.234;2023-07-02T18:14:38;99241.00;;;19.32;70.00
78855;BME280;68206;59.956;30.234;2023-07-02T18:17:06;99234.09;;;19.30;69.68
78855;BME280;68206;59.956;30.234;2023-07-02T18:19:35;99227.25;;;19.26;69.99
78855;BME280;68206;59.956;30.234;2023-07-02T18:22:07;99225.41;;;19.17;70.09
78855;BME280;68206;59.956;30.234;2023-07-02T18:24:37;99225.66;;;19.14;70.46
78855;BME280;68206;59.956;30.234;2023-07-02T18:27:08;99223.81;;;19.05;70.57
78855;BME280;68206;59.956;30.234;2023-07-02T18:29:37;99208.22;;;18.99;70.89
78855;BME280;68206;59.956;30.234;2023-07-02T18:32:07;99213.84;;;18.96;71.20
78855;BME280;68206;59.956;30.234;2023-07-02T18:34:37;99207.63;;;18.95;70.77
78855;BME280;68206;59.956;30.234;2023-07-02T18:37:08;99202.22;;;18.85;71.13
78855;BME280;68206;59.956;30.234;2023-07-02T18:39:37;99199.91;;;18.81;71.78
78855;BME280;68206;59.956;30.234;2023-07-02T18:42:08;99200.78;;;18.81;71.61
78855;BME280;68206;59.956;30.234;2023-07-02T18:44:38;99199.91;;;18.81;71.90
78855;BME280;68206;59.956;30.234;2023-07-02T18:47:08;99197.97;;;18.83;72.10
78855;BME280;68206;59.956;30.234;2023-07-02T18:49:37;99195.56;;;18.80;71.70
78855;BME280;68206;59.956;30.234;2023-07-02T18:52:09;99191.47;;;18.85;71.64
78855;BME280;68206;59.956;30.234;2023-07-02T18:54:39;99192.03;;;18.79;71.73
78855;BME280;68206;59.956;30.234;2023-07-02T18:57:09;99188.84;;;18.74;71.67
78855;BME280;68206;59.956;30.234;2023-07-02T18:59:40;99180.25;;;18.71;71.20
78855;BME280;68206;59.956;30.234;2023-07-02T19:02:12;99182.06;;;18.70;70.64
78855;BME280;68206;59.956;30.234;2023-07-02T19:04:40;99186.03;;;18.66;69.71
78855;BME280;68206;59.956;30.234;2023-07-02T19:07:10;99179.06;;;18.64;69.03
78855;BME280;68206;59.956;30.234;2023-07-02T19:09:39;99173.81;;;18.62;67.86
78855;BME280;68206;59.956;30.234;2023-07-02T19:12:08;99169.72;;;18.58;67.63
78855;BME280;68206;59.956;30.234;2023-07-02T19:14:37;99171.75;;;18.66;67.93
78855;BME280;68206;59.956;30.234;2023-07-02T19:17:07;99168.75;;;18.69;68.15
78855;BME280;68206;59.956;30.234;2023-07-02T19:19:37;99167.66;;;18.71;68.07
78855;BME280;68206;59.956;30.234;2023-07-02T19:22:08;99167.22;;;18.66;67.43
78855;BME280;68206;59.956;30.234;2023-07-02T19:24:38;99164.53;;;18.66;66.61
78855;BME280;68206;59.956;30.234;2023-07-02T19:27:10;99161.84;;;18.66;66.63
78855;BME280;68206;59.956;30.234;2023-07-02T19:29:40;99153.78;;;18.66;66.34
78855;BME280;68206;59.956;30.234;2023-07-02T19:32:09;99156.78;;;18.73;66.17
78855;BME280;68206;59.956;30.234;2023-07-02T19:34:37;99155.22;;;18.70;65.65
78855;BME280;68206;59.956;30.234;2023-07-02T19:37:08;99156.03;;;18.61;65.06
78855;BME280;68206;59.956;30.234;2023-07-02T19:39:40;99149.22;;;18.57;65.47
78855;BME280;68206;59.956;30.234;2023-07-02T19:42:08;99141.88;;;18.59;65.75
78855;BME280;68206;59.956;30.234;2023-07-02T19:44:41;99140.81;;;18.50;66.09
78855;BME280;68206;59.956;30.234;2023-07-02T19:47:09;99140.34;;;18.45;65.75
78855;BME280;68206;59.956;30.234;2023-07-02T19:49:41;99141.47;;;18.43;66.36
78855;BME280;68206;59.956;30.234;2023-07-02T19:52:13;99135.41;;;18.41;66.24
78855;BME280;68206;59.956;30.234;2023-07-02T19:54:43;99132.72;;;18.41;66.02
78855;BME280;68206;59.956;30.234;2023-07-02T19:57:13;99123.09;;;18.38;65.76
78855;BME280;68206;59.956;30.234;2023-07-02T19:59:44;99127.34;;;18.41;65.91
78855;BME280;68206;59.956;30.234;2023-07-02T20:02:13;99117.16;;;18.35;65.17
78855;BME280;68206;59.956;30.234;2023-07-02T20:04:45;99118.84;;;18.36;65.65
78855;BME280;68206;59.956;30.234;2023-07-02T20:07:15;99117.41;;;18.32;65.80
78855;BME280;68206;59.956;30.234;2023-07-02T20:09:45;99126.31;;;18.32;65.60
78855;BME280;68206;59.956;30.234;2023-07-02T20:12:13;99114.84;;;18.30;65.05
78855;BME280;68206;59.956;30.234;2023-07-02T20:14:42;99105.97;;;18.30;65.23
78855;BME280;68206;59.956;30.234;2023-07-02T20:17:14;99109.75;;;18.27;65.03
78855;BME280;68206;59.956;30.234;2023-07-02T20:19:43;99109.63;;;18.29;64.63
78855;BME280;68206;59.956;30.234;2023-07-02T20:22:15;99102.28;;;18.31;64.07
78855;BME280;68206;59.956;30.234;2023-07-02T20:24:47;99106.66;;;18.32;64.07
78855;BME280;68206;59.956;30.234;2023-07-02T20:27:17;99103.28;;;18.30;64.21
78855;BME280;68206;59.956;30.234;2023-07-02T20:29:49;99096.22;;;18.29;63.83
78855;BME280;68206;59.956;30.234;2023-07-02T20:32:18;99093.66;;;18.27;64.54
78855;BME280;68206;59.956;30.234;2023-07-02T20:34:47;99088.00;;;18.30;64.35
78855;BME280;68206;59.956;30.234;2023-07-02T20:37:16;99091.41;;;18.32;64.10
78855;BME280;68206;59.956;30.234;2023-07-02T20:39:44;99093.97;;;18.34;64.03